Carangola, Brazil
Current Conditions -  °F | °C
As of 11:00 PM on Wednesday 22 Oct 2014 (Local Time) from SBCP Reporting Station
Broken Clouds Broken Clouds  
Wind Chill: 72°   Ceiling: 9000
Heat Index: 72°   Visibility: 6mi
Dew Point: 63°   Wind: 0mph
Humidity: 73%   Direction: NA
Pressure: 30.21"   Gusts: NA
Location:  20.74°S, 42.04°W
Report Text: SBCP 230100Z 00000KT 9999 FEW025 BKN090 22/17 Q1023
Loading
Personal Weather Stations






























Interactive Weather Map
Tropical Storm Tracking
New forecast layout! Learn more

10-Day Weather Forecast

Advertisements
Track Severe Weather on mobile